createdAt,value
2022-09-01T00:00:11.160Z,80.40
2022-09-01T00:02:37.827Z,80.50
2022-09-01T00:05:07.414Z,80.10
2022-09-01T00:07:35.306Z,79.80
2022-09-01T00:10:03.561Z,79.50
2022-09-01T00:12:30.368Z,80.30
2022-09-01T00:14:59.280Z,81.10
2022-09-01T00:17:26.638Z,81.00
2022-09-01T00:19:53.332Z,81.40
2022-09-01T00:22:20.077Z,81.80
2022-09-01T00:24:49.012Z,82.00
2022-09-01T00:27:15.661Z,82.40
2022-09-01T00:29:43.229Z,82.60
2022-09-01T00:32:11.506Z,83.70
2022-09-01T00:34:38.268Z,82.90
2022-09-01T00:37:07.028Z,83.20
2022-09-01T00:39:35.753Z,82.90
2022-09-01T00:42:04.926Z,83.00
2022-09-01T00:44:31.783Z,82.90
2022-09-01T00:46:59.300Z,83.00
2022-09-01T00:49:29.608Z,83.20
2022-09-01T00:52:03.611Z,83.30
2022-09-01T00:54:32.928Z,83.50
2022-09-01T00:57:00.141Z,83.60
2022-09-01T00:59:27.915Z,84.20
2022-09-01T01:01:55.399Z,84.50
2022-09-01T01:04:22.238Z,84.70
2022-09-01T01:06:58.365Z,84.80
2022-09-01T01:09:28.382Z,84.40
2022-09-01T01:11:57.608Z,83.90
2022-09-01T01:14:29.008Z,83.70
2022-09-01T01:16:57.829Z,83.80
2022-09-01T01:19:52.889Z,83.60
2022-09-01T01:22:45.153Z,83.60
2022-09-01T01:25:12.808Z,83.80
2022-09-01T01:27:43.223Z,84.60
2022-09-01T01:30:11.082Z,85.40
2022-09-01T01:32:43.680Z,85.80
2022-09-01T01:35:14.906Z,86.00
2022-09-01T01:37:49.061Z,86.70
2022-09-01T01:40:18.431Z,87.20
2022-09-01T01:42:46.135Z,87.50
2022-09-01T01:45:17.005Z,87.80
2022-09-01T01:47:47.363Z,88.10
2022-09-01T01:50:16.185Z,88.40
2022-09-01T01:52:45.508Z,88.90
2022-09-01T01:55:12.711Z,89.30
2022-09-01T01:57:50.038Z,89.60
2022-09-01T02:00:26.063Z,89.80
2022-09-01T02:02:59.816Z,90.10
2022-09-01T02:05:29.711Z,90.00
2022-09-01T02:07:59.466Z,90.00
2022-09-01T02:10:27.690Z,88.60
2022-09-01T02:13:04.282Z,87.70
2022-09-01T02:15:38.163Z,87.30
2022-09-01T02:18:05.953Z,87.20
2022-09-01T02:20:32.837Z,87.00
2022-09-01T02:23:09.169Z,86.80
2022-09-01T02:25:36.304Z,86.70
2022-09-01T02:28:04.096Z,86.80
2022-09-01T02:30:34.122Z,86.70
2022-09-01T02:33:00.749Z,86.60
2022-09-01T02:35:36.784Z,86.60
2022-09-01T02:38:04.893Z,86.30
2022-09-01T02:40:33.176Z,86.60
2022-09-01T02:43:00.768Z,86.60
2022-09-01T02:45:29.470Z,86.80
2022-09-01T02:47:57.190Z,86.90
2022-09-01T02:50:29.142Z,87.00
2022-09-01T02:52:55.734Z,87.10
2022-09-01T02:55:22.691Z,87.20
2022-09-01T02:57:50.514Z,87.50
2022-09-01T03:00:22.815Z,87.80
2022-09-01T03:02:52.737Z,88.20
2022-09-01T03:05:26.931Z,88.40
2022-09-01T03:07:56.489Z,88.50
2022-09-01T03:10:32.680Z,88.60
2022-09-01T03:13:02.538Z,88.50
2022-09-01T03:15:29.667Z,88.30
2022-09-01T03:17:57.805Z,88.30
2022-09-01T03:20:26.828Z,88.50
2022-09-01T03:22:53.559Z,88.70
2022-09-01T03:25:21.015Z,88.70
2022-09-01T03:27:50.003Z,88.80
2022-09-01T03:30:18.989Z,88.80
2022-09-01T03:32:47.792Z,88.70
2022-09-01T03:35:17.540Z,89.10
2022-09-01T03:37:44.419Z,89.70
2022-09-01T03:40:12.016Z,89.70
2022-09-01T03:42:38.971Z,89.80
2022-09-01T03:45:09.288Z,90.40
2022-09-01T03:47:40.069Z,89.90
2022-09-01T03:50:20.688Z,89.70
2022-09-01T03:52:49.290Z,89.70
2022-09-01T03:55:23.561Z,89.80
2022-09-01T03:57:50.991Z,89.60
2022-09-01T04:00:23.100Z,89.80
2022-09-01T04:02:56.302Z,89.40
2022-09-01T04:05:25.074Z,89.50
2022-09-01T04:07:51.667Z,89.90
2022-09-01T04:10:18.630Z,90.10
2022-09-01T04:12:45.665Z,90.40
2022-09-01T04:15:13.962Z,90.40
2022-09-01T04:17:59.298Z,90.30
2022-09-01T04:20:25.960Z,90.40
2022-09-01T04:22:52.725Z,90.50
2022-09-01T04:25:26.604Z,90.30
2022-09-01T04:27:57.162Z,90.20
2022-09-01T04:30:26.946Z,90.20
2022-09-01T04:32:56.060Z,90.40
2022-09-01T04:35:32.624Z,90.30
2022-09-01T04:38:08.358Z,90.20
2022-09-01T04:40:44.153Z,90.10
2022-09-01T04:43:10.863Z,90.50
2022-09-01T04:45:40.859Z,91.20
2022-09-01T04:48:07.453Z,91.90
2022-09-01T04:50:40.934Z,92.20
2022-09-01T04:53:07.569Z,92.50
2022-09-01T04:55:38.565Z,92.60
2022-09-01T04:58:09.990Z,92.90
2022-09-01T05:00:36.984Z,93.10
2022-09-01T05:03:07.066Z,93.20
2022-09-01T05:05:39.363Z,93.30
2022-09-01T05:08:06.857Z,93.30
2022-09-01T05:10:41.678Z,93.30
2022-09-01T05:13:09.902Z,93.40
2022-09-01T05:15:38.253Z,93.50
2022-09-01T05:18:10.022Z,93.80
2022-09-01T05:20:38.209Z,93.90
2022-09-01T05:23:07.873Z,94.10
2022-09-01T05:25:39.038Z,94.20
2022-09-01T05:28:05.612Z,94.30
2022-09-01T05:30:36.563Z,94.10
2022-09-01T05:33:04.972Z,94.10
2022-09-01T05:35:32.794Z,94.10
2022-09-01T05:38:02.478Z,94.10
2022-09-01T05:40:32.350Z,94.20
2022-09-01T05:42:59.322Z,94.40
2022-09-01T05:45:26.718Z,94.50
2022-09-01T05:47:54.879Z,94.70
2022-09-01T05:50:23.969Z,94.70
2022-09-01T05:52:51.034Z,94.60
2022-09-01T05:55:17.673Z,94.50
2022-09-01T05:57:46.679Z,94.60
2022-09-01T06:00:13.481Z,94.30
2022-09-01T06:02:41.203Z,94.10
2022-09-01T06:05:08.566Z,94.00
2022-09-01T06:07:40.773Z,94.40
2022-09-01T06:10:07.590Z,93.80
2022-09-01T06:12:38.662Z,94.10
2022-09-01T06:15:15.917Z,94.00
2022-09-01T06:17:43.998Z,93.80
2022-09-01T06:20:11.013Z,93.80
2022-09-01T06:22:37.731Z,93.80
2022-09-01T06:25:06.644Z,93.90
2022-09-01T06:27:33.849Z,93.70
2022-09-01T06:30:14.707Z,93.60
2022-09-01T06:32:43.960Z,93.50
2022-09-01T06:35:15.764Z,93.50
2022-09-01T06:37:43.866Z,93.50
2022-09-01T06:40:17.052Z,93.60
2022-09-01T06:42:47.338Z,93.60
2022-09-01T06:45:15.061Z,93.60
2022-09-01T06:47:45.428Z,93.70
2022-09-01T06:51:14.750Z,93.60
2022-09-01T06:55:57.699Z,93.10
2022-09-01T06:58:25.290Z,92.70
2022-09-01T07:00:52.407Z,91.10
2022-09-01T07:03:24.955Z,90.50
2022-09-01T07:06:01.317Z,90.10
2022-09-01T07:08:31.752Z,88.50
2022-09-01T07:16:52.149Z,87.50
2022-09-01T07:19:19.756Z,87.00
2022-09-01T07:24:33.200Z,86.80
2022-09-01T07:27:07.802Z,85.70
2022-09-01T07:29:37.094Z,85.40
2022-09-01T07:34:56.962Z,85.90
2022-09-01T07:45:33.313Z,79.70
2022-09-01T07:48:03.396Z,79.90
2022-09-01T07:51:07.601Z,79.30
2022-09-01T07:53:18.704Z,78.80
2022-09-01T07:55:46.765Z,78.30
2022-09-01T07:58:15.966Z,78.70
2022-09-01T08:00:49.789Z,78.10
2022-09-01T08:03:17.447Z,77.00
2022-09-01T08:05:44.266Z,77.00
2022-09-01T08:08:29.490Z,76.80
2022-09-01T08:11:04.382Z,77.00
2022-09-01T08:13:33.717Z,77.20
2022-09-01T08:16:08.638Z,77.20
2022-09-01T08:18:51.346Z,77.40
2022-09-01T08:21:18.950Z,77.40
2022-09-01T08:23:45.752Z,77.90
2022-09-01T08:26:13.716Z,77.60
2022-09-01T08:28:45.992Z,77.10
2022-09-01T08:31:14.885Z,77.10
2022-09-01T08:33:42.455Z,77.50
2022-09-01T08:36:10.082Z,76.40
2022-09-01T08:38:36.708Z,76.40
2022-09-01T08:41:05.351Z,76.00
2022-09-01T08:43:37.924Z,75.80
2022-09-01T08:46:24.883Z,75.20
2022-09-01T08:51:42.447Z,74.40
2022-09-01T08:54:29.663Z,73.60
2022-09-01T08:57:05.935Z,73.10
2022-09-01T08:59:32.706Z,72.00
2022-09-01T09:02:11.930Z,72.30
2022-09-01T09:04:53.016Z,70.60
2022-09-01T09:07:21.786Z,70.40
2022-09-01T09:09:59.876Z,70.00
2022-09-01T09:12:35.526Z,71.00
2022-09-01T09:15:11.595Z,70.20
2022-09-01T09:17:41.623Z,69.40
2022-09-01T09:20:09.402Z,69.60
2022-09-01T09:22:36.251Z,68.50
2022-09-01T09:25:05.543Z,68.40
2022-09-01T09:27:34.287Z,68.10
2022-09-01T09:30:09.187Z,67.20
2022-09-01T09:33:15.973Z,67.00
2022-09-01T09:35:33.809Z,67.40
2022-09-01T09:38:18.758Z,66.20
2022-09-01T09:43:51.935Z,65.30
2022-09-01T09:46:26.760Z,64.70
2022-09-01T09:49:10.187Z,64.20
2022-09-01T09:51:43.709Z,63.90
2022-09-01T09:54:29.147Z,63.60
2022-09-01T09:57:22.506Z,63.60
2022-09-01T09:59:59.105Z,63.40
2022-09-01T10:02:38.127Z,62.90
2022-09-01T10:05:23.320Z,62.40
2022-09-01T10:07:50.476Z,60.80
2022-09-01T10:10:35.921Z,60.70
2022-09-01T10:13:04.900Z,60.00
2022-09-01T10:15:35.887Z,60.60
2022-09-01T10:18:20.624Z,60.80
2022-09-01T10:21:00.456Z,60.20
2022-09-01T10:23:31.363Z,60.20
2022-09-01T10:26:02.267Z,60.20
2022-09-01T10:28:33.411Z,59.10
2022-09-01T10:31:01.615Z,59.40
2022-09-01T10:33:28.215Z,59.10
2022-09-01T10:35:55.412Z,58.90
2022-09-01T10:38:23.989Z,58.60
2022-09-01T10:41:07.740Z,58.20
2022-09-01T10:43:37.950Z,56.40
2022-09-01T10:46:26.613Z,57.00
2022-09-01T10:49:03.134Z,56.00
2022-09-01T10:51:36.313Z,55.00
2022-09-01T10:54:08.084Z,55.20
2022-09-01T10:56:43.603Z,55.00
2022-09-01T11:02:35.258Z,53.80
2022-09-01T11:05:00.836Z,53.50
2022-09-01T11:07:50.737Z,54.50
2022-09-01T11:10:35.887Z,54.40
2022-09-01T11:13:14.912Z,55.00
2022-09-01T11:15:48.737Z,55.10
2022-09-01T11:18:23.258Z,54.70
2022-09-01T11:20:50.863Z,53.90
2022-09-01T11:23:28.035Z,54.20
2022-09-01T11:28:42.017Z,54.70
2022-09-01T11:31:08.845Z,54.00
2022-09-01T11:33:39.482Z,53.60
2022-09-01T11:36:14.686Z,53.50
2022-09-01T11:38:50.428Z,53.30
2022-09-01T11:41:23.786Z,53.50
2022-09-01T11:43:54.023Z,53.30
2022-09-01T11:46:24.958Z,52.10
2022-09-01T11:48:52.200Z,52.30
2022-09-01T11:51:19.153Z,52.10
2022-09-01T11:53:48.134Z,52.70
2022-09-01T11:56:19.992Z,52.70
2022-09-01T11:58:47.468Z,51.90
2022-09-01T12:01:30.698Z,52.00
2022-09-01T12:03:59.703Z,52.60
2022-09-01T12:06:31.071Z,52.10
2022-09-01T12:08:59.134Z,51.50
2022-09-01T12:11:30.277Z,50.50
2022-09-01T12:13:56.836Z,51.60
2022-09-01T12:16:23.502Z,51.20
2022-09-01T12:18:54.148Z,50.60
2022-09-01T12:21:28.473Z,50.90
2022-09-01T12:24:10.007Z,51.20
2022-09-01T12:26:36.681Z,50.70
2022-09-01T12:29:04.538Z,51.10
2022-09-01T12:31:31.331Z,51.60
2022-09-01T12:33:57.960Z,50.90
2022-09-01T12:38:53.363Z,48.50
2022-09-01T12:41:32.653Z,49.60
2022-09-01T12:44:19.258Z,48.60
2022-09-01T12:46:46.659Z,48.60
2022-09-01T12:49:29.353Z,48.40
2022-09-01T12:52:14.691Z,47.90
2022-09-01T12:54:41.633Z,48.00
2022-09-01T12:57:08.417Z,47.10
2022-09-01T12:59:37.663Z,48.00
2022-09-01T13:02:26.233Z,47.30
2022-09-01T13:04:53.291Z,47.30
2022-09-01T13:07:20.320Z,47.70
2022-09-01T13:09:46.919Z,48.10
2022-09-01T13:12:17.772Z,47.80
2022-09-01T13:14:44.519Z,47.80
2022-09-01T13:17:14.337Z,47.10
2022-09-01T13:19:41.294Z,47.30
2022-09-01T13:22:07.978Z,47.60
2022-09-01T13:24:34.659Z,47.70
2022-09-01T13:29:48.452Z,47.10
2022-09-01T13:32:18.826Z,46.40
2022-09-01T13:34:46.527Z,46.20
2022-09-01T13:37:17.934Z,46.30
2022-09-01T13:39:45.741Z,46.10
2022-09-01T13:42:14.893Z,45.30
2022-09-01T13:44:46.285Z,46.00
2022-09-01T13:47:30.674Z,45.40
2022-09-01T13:50:10.270Z,45.50
2022-09-01T13:52:40.869Z,45.20
2022-09-01T13:55:08.716Z,45.10
2022-09-01T13:57:36.160Z,44.70
2022-09-01T14:00:04.746Z,44.40
2022-09-01T14:02:35.234Z,44.70
2022-09-01T14:05:04.218Z,45.20
2022-09-01T14:07:32.959Z,44.30
2022-09-01T14:10:02.658Z,44.60
2022-09-01T14:12:30.184Z,43.60
2022-09-01T14:15:15.950Z,44.30
2022-09-01T14:17:44.799Z,44.70
2022-09-01T14:20:13.529Z,43.60
2022-09-01T14:22:40.829Z,44.30
2022-09-01T14:25:08.495Z,44.50
2022-09-01T14:27:35.140Z,45.00
2022-09-01T14:30:04.102Z,44.60
2022-09-01T14:32:30.741Z,44.90
2022-09-01T14:34:57.408Z,44.60
2022-09-01T14:37:26.603Z,43.80
2022-09-01T14:39:56.332Z,43.40
2022-09-01T14:42:25.629Z,42.90
2022-09-01T14:44:52.243Z,42.80
2022-09-01T14:47:21.261Z,42.70
2022-09-01T14:49:50.003Z,42.70
2022-09-01T14:52:18.756Z,43.10
2022-09-01T14:54:45.363Z,43.00
2022-09-01T14:57:36.295Z,42.60
2022-09-01T15:00:04.109Z,43.00
2022-09-01T15:02:31.904Z,42.50
2022-09-01T15:04:58.615Z,42.70
2022-09-01T15:07:25.304Z,42.90
2022-09-01T15:09:54.277Z,43.20
2022-09-01T15:12:31.599Z,42.70
2022-09-01T15:14:58.990Z,42.70
2022-09-01T15:17:25.995Z,42.70
2022-09-01T15:19:52.893Z,42.70
2022-09-01T15:22:19.563Z,42.60
2022-09-01T15:24:46.164Z,42.70
2022-09-01T15:27:15.133Z,42.40
2022-09-01T15:29:49.676Z,42.90
2022-09-01T15:32:27.502Z,43.00
2022-09-01T15:34:55.045Z,42.00
2022-09-01T15:37:23.802Z,42.20
2022-09-01T15:39:52.536Z,42.10
2022-09-01T15:42:19.173Z,42.80
2022-09-01T15:44:47.273Z,42.60
2022-09-01T15:47:13.865Z,42.60
2022-09-01T15:49:40.459Z,43.00
2022-09-01T15:52:08.139Z,42.40
2022-09-01T15:54:37.477Z,42.70
2022-09-01T15:57:04.477Z,43.30
2022-09-01T15:59:31.548Z,42.10
2022-09-01T16:01:58.627Z,42.30
2022-09-01T16:04:27.788Z,43.00
2022-09-01T16:06:56.392Z,42.40
2022-09-01T16:09:23.083Z,42.60
2022-09-01T16:11:49.902Z,42.40
2022-09-01T16:14:16.495Z,42.20
2022-09-01T16:17:04.474Z,42.20
2022-09-01T16:19:46.232Z,42.60
2022-09-01T16:22:39.013Z,42.40
2022-09-01T16:25:13.086Z,42.20
2022-09-01T16:27:41.335Z,42.40
2022-09-01T16:30:09.570Z,41.80
2022-09-01T16:32:37.896Z,41.40
2022-09-01T16:35:04.693Z,41.80
2022-09-01T16:37:39.585Z,41.90
2022-09-01T16:40:13.992Z,41.60
2022-09-01T16:42:41.541Z,42.00
2022-09-01T16:45:11.062Z,42.20
2022-09-01T16:47:45.664Z,42.40
2022-09-01T16:50:20.831Z,42.30
2022-09-01T16:53:01.008Z,42.20
2022-09-01T16:55:27.570Z,42.20
2022-09-01T16:58:09.986Z,42.20
2022-09-01T17:00:50.463Z,42.40
2022-09-01T17:03:22.730Z,42.20
2022-09-01T17:06:13.651Z,42.10
2022-09-01T17:08:49.815Z,42.00
2022-09-01T17:11:20.582Z,41.50
2022-09-01T17:13:52.042Z,41.50
2022-09-01T17:16:25.329Z,41.40
2022-09-01T17:19:04.776Z,41.50
2022-09-01T17:21:34.457Z,41.60
2022-09-01T17:24:12.534Z,41.90
2022-09-01T17:26:40.754Z,41.90
2022-09-01T17:29:23.080Z,41.80
2022-09-01T17:32:09.694Z,42.20
2022-09-01T17:34:38.761Z,42.40
2022-09-01T17:37:11.860Z,42.80
2022-09-01T17:39:45.387Z,43.10
2022-09-01T17:42:21.825Z,43.00
2022-09-01T17:44:56.221Z,43.20
2022-09-01T17:47:30.984Z,43.10
2022-09-01T17:50:13.303Z,43.30
2022-09-01T17:53:03.279Z,43.30
2022-09-01T17:55:43.916Z,43.50
2022-09-01T17:58:19.844Z,43.70
2022-09-01T18:00:46.427Z,43.80
2022-09-01T18:03:14.737Z,44.00
2022-09-01T18:05:46.033Z,44.20
2022-09-01T18:08:13.552Z,44.40
2022-09-01T18:10:45.446Z,44.50
2022-09-01T18:13:30.685Z,44.80
2022-09-01T18:16:00.458Z,45.60
2022-09-01T18:18:41.143Z,45.20
2022-09-01T18:21:07.820Z,45.30
2022-09-01T18:23:38.453Z,45.50
2022-09-01T18:26:08.456Z,45.80
2022-09-01T18:28:35.715Z,45.90
2022-09-01T18:31:14.351Z,46.60
2022-09-01T18:33:49.296Z,45.90
2022-09-01T18:36:32.766Z,46.40
2022-09-01T18:39:10.341Z,46.50
2022-09-01T18:41:42.792Z,46.80
2022-09-01T18:44:15.165Z,46.80
2022-09-01T18:46:44.637Z,47.20
2022-09-01T18:49:34.150Z,47.50
2022-09-01T18:52:21.992Z,47.40
2022-09-01T18:55:14.603Z,47.50
2022-09-01T18:57:41.806Z,47.00
2022-09-01T19:00:18.664Z,47.20
2022-09-01T19:02:46.088Z,47.50
2022-09-01T19:05:16.363Z,47.60
2022-09-01T19:07:53.008Z,47.50
2022-09-01T19:10:23.910Z,47.60
2022-09-01T19:12:50.510Z,47.50
2022-09-01T19:15:17.083Z,48.40
2022-09-01T19:17:49.833Z,47.80
2022-09-01T19:20:36.716Z,48.00
2022-09-01T19:23:13.483Z,48.30
2022-09-01T19:25:41.372Z,48.30
2022-09-01T19:28:13.519Z,48.30
2022-09-01T19:30:42.591Z,48.40
2022-09-01T19:33:11.979Z,48.80
2022-09-01T19:35:39.889Z,49.00
2022-09-01T19:38:08.354Z,49.00
2022-09-01T19:40:37.472Z,49.10
2022-09-01T19:43:09.986Z,49.20
2022-09-01T19:45:37.311Z,49.50
2022-09-01T19:48:04.331Z,49.60
2022-09-01T19:50:41.809Z,49.70
2022-09-01T19:53:12.392Z,49.80
2022-09-01T19:55:46.042Z,50.20
2022-09-01T19:58:16.362Z,50.30
2022-09-01T20:00:50.691Z,50.40
2022-09-01T20:03:32.511Z,50.40
2022-09-01T20:06:10.528Z,50.50
2022-09-01T20:08:39.757Z,50.40
2022-09-01T20:11:20.709Z,50.60
2022-09-01T20:13:59.702Z,50.80
2022-09-01T20:16:29.173Z,51.00
2022-09-01T20:19:00.359Z,51.10
2022-09-01T20:21:26.960Z,51.30
2022-09-01T20:24:19.937Z,51.30
2022-09-01T20:26:56.331Z,51.40
2022-09-01T20:29:32.391Z,51.40
2022-09-01T20:32:01.553Z,51.40
2022-09-01T20:34:37.275Z,51.40
2022-09-01T20:37:10.381Z,51.40
2022-09-01T20:40:04.678Z,51.60
2022-09-01T20:42:38.250Z,51.80
2022-09-01T20:45:10.797Z,51.80
2022-09-01T20:47:37.454Z,51.90
2022-09-01T20:50:09.021Z,51.70
2022-09-01T20:52:44.141Z,51.60
2022-09-01T20:55:19.968Z,51.80
2022-09-01T20:57:46.554Z,51.80
2022-09-01T21:00:22.962Z,51.70
2022-09-01T21:02:49.581Z,51.80
2022-09-01T21:05:31.932Z,51.70
2022-09-01T21:08:02.763Z,51.70
2022-09-01T21:10:33.238Z,51.80
2022-09-01T21:13:08.433Z,51.90
2022-09-01T21:15:49.796Z,52.10
2022-09-01T21:18:19.274Z,52.20
2022-09-01T21:21:03.202Z,52.30
2022-09-01T21:23:32.724Z,52.20
2022-09-01T21:25:59.593Z,52.30
2022-09-01T21:28:27.915Z,52.30
2022-09-01T21:30:57.548Z,52.50
2022-09-01T21:33:28.260Z,52.60
2022-09-01T21:35:54.958Z,52.40
2022-09-01T21:38:21.770Z,53.30
2022-09-01T21:40:51.864Z,52.80
2022-09-01T21:43:18.566Z,52.70
2022-09-01T21:45:48.116Z,52.70
2022-09-01T21:48:17.563Z,52.60
2022-09-01T21:50:47.958Z,52.60
2022-09-01T21:53:17.837Z,52.60
2022-09-01T21:55:47.144Z,52.60
2022-09-01T21:58:16.125Z,52.70
2022-09-01T22:00:44.656Z,52.80
2022-09-01T22:03:11.613Z,52.80
2022-09-01T22:05:42.090Z,52.90
2022-09-01T22:08:12.229Z,52.90
2022-09-01T22:10:47.014Z,52.90
2022-09-01T22:13:14.002Z,52.90
2022-09-01T22:15:45.450Z,52.90
2022-09-01T22:18:12.631Z,52.90
2022-09-01T22:20:41.695Z,52.90
2022-09-01T22:23:10.909Z,52.80
2022-09-01T22:25:40.824Z,53.00
2022-09-01T22:28:07.399Z,53.00
2022-09-01T22:30:36.559Z,53.00
2022-09-01T22:33:03.761Z,53.10
2022-09-01T22:35:30.525Z,53.30
2022-09-01T22:38:02.023Z,53.30
2022-09-01T22:40:28.683Z,53.30
2022-09-01T22:42:55.352Z,53.20
2022-09-01T22:45:26.620Z,53.30
2022-09-01T22:47:55.338Z,53.30
2022-09-01T22:50:22.085Z,53.30
2022-09-01T22:52:48.683Z,53.30
2022-09-01T22:55:16.302Z,53.40
2022-09-01T22:57:45.470Z,53.50
2022-09-01T23:00:12.364Z,53.50
2022-09-01T23:02:41.312Z,53.60
2022-09-01T23:05:10.094Z,53.60
2022-09-01T23:07:39.597Z,53.50
2022-09-01T23:10:08.199Z,53.60
2022-09-01T23:12:34.762Z,53.70
2022-09-01T23:15:01.338Z,53.70
2022-09-01T23:17:27.927Z,53.70
2022-09-01T23:19:54.634Z,53.80
2022-09-01T23:22:23.775Z,53.80
2022-09-01T23:24:50.338Z,53.90
2022-09-01T23:27:17.519Z,54.00
2022-09-01T23:29:46.577Z,54.10
2022-09-01T23:32:13.188Z,54.20
2022-09-01T23:34:39.873Z,54.30
2022-09-01T23:37:08.611Z,54.30
2022-09-01T23:39:35.190Z,54.40
2022-09-01T23:42:03.930Z,54.50
2022-09-01T23:44:30.878Z,54.50
2022-09-01T23:46:59.681Z,54.70
2022-09-01T23:49:26.260Z,54.90
2022-09-01T23:51:55.441Z,54.90
2022-09-01T23:54:22.042Z,54.90
2022-09-01T23:56:51.003Z,55.00
2022-09-01T23:59:17.613Z,55.20
